createdAt,value
2022-09-20T00:01:32.008Z,10.20
2022-09-20T00:04:01.601Z,10.20
2022-09-20T00:06:31.365Z,10.20
2022-09-20T00:08:59.625Z,10.20
2022-09-20T00:11:30.849Z,10.22
2022-09-20T00:14:00.741Z,10.20
2022-09-20T00:16:35.568Z,10.20
2022-09-20T00:19:04.400Z,10.18
2022-09-20T00:21:33.259Z,10.12
2022-09-20T00:24:00.386Z,10.10
2022-09-20T00:26:28.569Z,10.10
2022-09-20T00:28:56.046Z,10.00
2022-09-20T00:31:22.923Z,9.90
2022-09-20T00:34:07.903Z,9.90
2022-09-20T00:36:34.430Z,9.90
2022-09-20T00:39:02.977Z,9.90
2022-09-20T00:41:31.680Z,9.80
2022-09-20T00:43:58.841Z,9.70
2022-09-20T00:46:32.574Z,9.70
2022-09-20T00:49:13.305Z,9.70
2022-09-20T00:51:45.608Z,9.70
2022-09-20T00:54:20.319Z,9.60
2022-09-20T00:56:48.797Z,9.60
2022-09-20T00:59:40.142Z,9.60
2022-09-20T01:02:14.549Z,9.46
2022-09-20T01:04:44.706Z,9.40
2022-09-20T01:07:17.523Z,9.22
2022-09-20T01:09:44.032Z,9.20
2022-09-20T01:12:19.386Z,9.20
2022-09-20T01:14:50.774Z,9.30
2022-09-20T01:17:22.223Z,9.30
2022-09-20T01:20:06.070Z,9.28
2022-09-20T01:23:20.626Z,9.14
2022-09-20T01:26:09.879Z,9.10
2022-09-20T01:28:37.823Z,9.10
2022-09-20T01:31:17.177Z,9.10
2022-09-20T01:33:58.405Z,9.00
2022-09-20T01:36:31.648Z,8.94
2022-09-20T01:39:34.033Z,9.00
2022-09-20T01:42:13.524Z,9.00
2022-09-20T01:44:55.233Z,9.06
2022-09-20T01:47:51.306Z,9.10
2022-09-20T01:50:38.664Z,9.10
2022-09-20T01:53:45.774Z,9.08
2022-09-20T01:56:40.289Z,9.08
2022-09-20T01:59:25.229Z,9.04
2022-09-20T02:01:57.698Z,9.10
2022-09-20T02:04:55.886Z,9.10
2022-09-20T02:07:54.857Z,9.10
2022-09-20T02:13:33.363Z,9.14
2022-09-20T02:16:31.013Z,9.20
2022-09-20T02:19:30.416Z,9.22
2022-09-20T02:22:14.871Z,9.30
2022-09-20T02:25:01.934Z,9.30
2022-09-20T02:28:05.228Z,9.40
2022-09-20T02:31:06.789Z,9.50
2022-09-20T02:33:58.221Z,9.50
2022-09-20T02:36:59.840Z,9.58
2022-09-20T02:39:58.709Z,9.60
2022-09-20T02:42:48.149Z,9.60
2022-09-20T02:45:28.833Z,9.60
2022-09-20T02:48:03.754Z,9.68
2022-09-20T02:50:52.809Z,9.70
2022-09-20T02:53:55.038Z,9.70
2022-09-20T02:56:45.698Z,9.78
2022-09-20T02:59:36.371Z,9.80
2022-09-20T03:02:30.358Z,9.80
2022-09-20T03:05:21.831Z,9.80
2022-09-20T03:08:14.192Z,9.70
2022-09-20T03:11:22.545Z,9.70
2022-09-20T03:14:08.630Z,9.80
2022-09-20T03:17:06.107Z,9.90
2022-09-20T03:20:20.027Z,9.90
2022-09-20T03:23:04.610Z,10.00
2022-09-20T03:25:57.492Z,10.04
2022-09-20T03:28:50.267Z,10.10
2022-09-20T03:31:56.476Z,10.10
2022-09-20T03:34:41.493Z,10.10
2022-09-20T03:37:41.746Z,10.10
2022-09-20T03:41:00.170Z,10.10
2022-09-20T03:43:56.476Z,10.10
2022-09-20T03:46:27.125Z,10.10
2022-09-20T03:49:41.925Z,10.10
2022-09-20T03:52:51.006Z,10.10
2022-09-20T03:55:49.337Z,10.00
2022-09-20T03:59:04.356Z,9.90
2022-09-20T04:02:06.485Z,9.90
2022-09-20T04:04:54.633Z,9.80
2022-09-20T04:07:39.704Z,9.80
2022-09-20T04:10:43.615Z,9.70
2022-09-20T04:13:36.133Z,9.70
2022-09-20T04:16:23.332Z,9.60
2022-09-20T04:18:58.868Z,9.60
2022-09-20T04:21:42.203Z,9.50
2022-09-20T04:24:26.726Z,9.50
2022-09-20T04:27:12.801Z,9.50
2022-09-20T04:30:19.762Z,9.50
2022-09-20T04:33:13.382Z,9.60
2022-09-20T04:36:27.844Z,9.60
2022-09-20T04:39:34.531Z,9.60
2022-09-20T04:42:51.744Z,9.60
2022-09-20T04:45:52.330Z,9.64
2022-09-20T04:49:25.969Z,9.70
2022-09-20T04:52:04.307Z,9.76
2022-09-20T04:55:10.272Z,9.80
2022-09-20T04:58:04.803Z,9.88
2022-09-20T05:01:20.971Z,9.90
2022-09-20T05:04:22.150Z,9.90
2022-09-20T05:07:32.844Z,9.94
2022-09-20T05:10:38.316Z,10.00
2022-09-20T05:14:02.407Z,10.00
2022-09-20T05:17:18.263Z,10.00
2022-09-20T05:20:26.376Z,10.10
2022-09-20T05:23:11.212Z,10.10
2022-09-20T05:25:59.142Z,10.10
2022-09-20T05:28:39.604Z,10.10
2022-09-20T05:31:25.001Z,10.20
2022-09-20T05:34:22.726Z,10.24
2022-09-20T05:37:04.988Z,10.30
2022-09-20T05:39:41.934Z,10.30
2022-09-20T05:42:24.009Z,10.30
2022-09-20T05:45:06.525Z,10.30
2022-09-20T05:47:52.063Z,10.20
2022-09-20T05:51:07.561Z,10.26
2022-09-20T05:54:26.493Z,10.30
2022-09-20T05:57:19.301Z,10.30
2022-09-20T06:00:15.857Z,10.40
2022-09-20T06:03:30.407Z,10.40
2022-09-20T06:06:22.900Z,10.40
2022-09-20T06:09:22.699Z,10.40
2022-09-20T06:12:00.945Z,10.40
2022-09-20T06:14:49.117Z,10.40
2022-09-20T06:17:18.985Z,10.50
2022-09-20T06:20:21.072Z,10.50
2022-09-20T06:22:54.531Z,10.52
2022-09-20T06:25:42.939Z,10.60
2022-09-20T06:28:21.149Z,10.70
2022-09-20T06:30:54.737Z,10.70
2022-09-20T06:33:28.299Z,10.80
2022-09-20T06:36:29.458Z,10.90
2022-09-20T06:39:56.126Z,10.90
2022-09-20T06:42:26.912Z,10.90
2022-09-20T06:44:53.678Z,10.92
2022-09-20T06:47:20.223Z,11.00
2022-09-20T06:49:47.677Z,11.00
2022-09-20T06:52:17.702Z,11.10
2022-09-20T06:54:46.803Z,11.22
2022-09-20T06:57:19.054Z,11.30
2022-09-20T06:59:45.744Z,11.34
2022-09-20T07:02:12.307Z,11.30
2022-09-20T07:04:39.076Z,11.30
2022-09-20T07:07:09.678Z,11.30
2022-09-20T07:09:36.464Z,11.30
2022-09-20T07:12:03.179Z,11.30
2022-09-20T07:14:29.760Z,11.30
2022-09-20T07:16:56.201Z,11.30
2022-09-20T07:19:23.386Z,11.40
2022-09-20T07:21:52.579Z,11.40
2022-09-20T07:24:20.126Z,11.50
2022-09-20T07:26:59.598Z,11.40
2022-09-20T07:29:27.169Z,11.48
2022-09-20T07:31:54.792Z,11.60
2022-09-20T07:34:21.275Z,11.78
2022-09-20T07:36:49.857Z,11.90
2022-09-20T07:39:17.736Z,12.00
2022-09-20T07:41:48.576Z,11.92
2022-09-20T07:44:22.063Z,11.80
2022-09-20T07:46:53.844Z,11.84
2022-09-20T07:49:22.065Z,11.90
2022-09-20T07:51:50.530Z,11.90
2022-09-20T07:54:18.332Z,12.00
2022-09-20T07:56:45.982Z,12.18
2022-09-20T07:59:13.658Z,12.30
2022-09-20T08:01:40.773Z,12.30
2022-09-20T08:04:09.391Z,12.30
2022-09-20T08:06:38.731Z,12.28
2022-09-20T08:09:10.720Z,12.20
2022-09-20T08:11:39.707Z,12.20
2022-09-20T08:14:09.012Z,12.20
2022-09-20T08:16:50.426Z,12.16
2022-09-20T08:19:21.613Z,12.10
2022-09-20T08:21:49.990Z,12.10
2022-09-20T08:24:17.406Z,12.20
2022-09-20T08:26:44.699Z,12.30
2022-09-20T08:29:12.089Z,12.38
2022-09-20T08:31:42.325Z,12.50
2022-09-20T08:34:12.903Z,12.60
2022-09-20T08:36:46.718Z,12.84
2022-09-20T08:42:36.795Z,13.64
2022-09-20T08:45:33.857Z,13.90
2022-09-20T08:48:07.753Z,14.00
2022-09-20T08:50:34.624Z,14.00
2022-09-20T08:53:05.418Z,13.90
2022-09-20T08:55:39.967Z,13.90
2022-09-20T08:58:12.067Z,13.90
2022-09-20T09:00:47.127Z,13.80
2022-09-20T09:03:19.497Z,13.90
2022-09-20T09:05:52.783Z,13.90
2022-09-20T09:08:29.366Z,14.00
2022-09-20T09:11:04.700Z,13.90
2022-09-20T09:13:51.432Z,14.00
2022-09-20T09:16:23.317Z,14.10
2022-09-20T09:18:52.167Z,14.20
2022-09-20T09:21:43.055Z,14.42
2022-09-20T09:24:20.699Z,14.60
2022-09-20T09:26:47.176Z,14.70
2022-09-20T09:29:21.470Z,14.62
2022-09-20T09:31:54.889Z,14.50
2022-09-20T09:34:27.683Z,14.40
2022-09-20T09:36:56.306Z,14.50
2022-09-20T09:39:33.457Z,14.60
2022-09-20T09:42:01.123Z,14.80
2022-09-20T09:44:33.938Z,14.90
2022-09-20T09:47:01.997Z,15.00
2022-09-20T09:49:34.402Z,15.00
2022-09-20T09:52:15.762Z,15.00
2022-09-20T09:54:50.810Z,15.00
2022-09-20T09:57:52.034Z,15.00
2022-09-20T10:00:24.658Z,15.00
2022-09-20T10:03:25.314Z,14.92
2022-09-20T10:06:27.127Z,15.00
2022-09-20T10:09:24.093Z,15.14
2022-09-20T10:12:19.736Z,15.20
2022-09-20T10:15:26.895Z,15.18
2022-09-20T10:18:35.828Z,15.10
2022-09-20T10:21:36.757Z,14.90
2022-09-20T10:24:49.725Z,14.90
2022-09-20T10:27:51.420Z,14.82
2022-09-20T10:30:29.894Z,14.90
2022-09-20T10:33:32.617Z,14.90
2022-09-20T10:36:12.339Z,14.90
2022-09-20T10:38:55.710Z,14.90
2022-09-20T10:42:14.907Z,15.00
2022-09-20T10:45:04.496Z,15.10
2022-09-20T10:48:09.133Z,15.20
2022-09-20T10:50:54.161Z,14.96
2022-09-20T10:53:57.709Z,15.00
2022-09-20T10:56:47.141Z,15.20
2022-09-20T10:59:44.361Z,15.20
2022-09-20T11:02:29.689Z,15.20
2022-09-20T11:05:26.357Z,15.30
2022-09-20T11:08:19.933Z,15.26
2022-09-20T11:10:55.642Z,15.00
2022-09-20T11:13:54.810Z,14.80
2022-09-20T11:16:45.970Z,14.70
2022-09-20T11:19:27.086Z,14.70
2022-09-20T11:22:17.030Z,14.80
2022-09-20T11:24:55.319Z,14.70
2022-09-20T11:27:58.815Z,14.80
2022-09-20T11:30:25.712Z,14.80
2022-09-20T11:33:24.680Z,14.72
2022-09-20T11:35:57.773Z,14.70
2022-09-20T11:38:38.582Z,14.50
2022-09-20T11:41:23.250Z,14.30
2022-09-20T11:43:51.643Z,14.30
2022-09-20T11:46:36.577Z,14.30
2022-09-20T11:49:52.899Z,14.38
2022-09-20T11:52:37.193Z,14.30
2022-09-20T11:55:24.358Z,14.26
2022-09-20T11:58:08.195Z,14.20
2022-09-20T12:00:41.359Z,14.30
2022-09-20T12:03:28.456Z,14.40
2022-09-20T12:06:02.532Z,14.70
2022-09-20T12:08:41.880Z,14.90
2022-09-20T12:11:16.297Z,15.10
2022-09-20T12:13:59.653Z,15.10
2022-09-20T12:16:46.318Z,14.90
2022-09-20T12:19:36.342Z,14.78
2022-09-20T12:22:05.723Z,14.80
2022-09-20T12:24:34.700Z,14.90
2022-09-20T12:27:30.508Z,15.18
2022-09-20T12:30:22.424Z,15.30
2022-09-20T12:32:55.053Z,15.50
2022-09-20T12:35:36.510Z,15.50
2022-09-20T12:38:21.300Z,15.50
2022-09-20T12:41:11.485Z,15.50
2022-09-20T12:43:52.056Z,15.50
2022-09-20T12:46:30.124Z,15.50
2022-09-20T12:49:41.625Z,15.70
2022-09-20T12:53:03.941Z,15.92
2022-09-20T12:55:40.593Z,16.10
2022-09-20T12:58:23.056Z,16.10
2022-09-20T13:01:15.549Z,16.00
2022-09-20T13:03:49.453Z,15.90
2022-09-20T13:06:25.569Z,16.00
2022-09-20T13:09:00.831Z,16.18
2022-09-20T13:11:43.717Z,16.20
2022-09-20T13:14:21.960Z,16.28
2022-09-20T13:17:01.116Z,16.30
2022-09-20T13:19:34.389Z,16.30
2022-09-20T13:22:00.701Z,16.20
2022-09-20T13:24:37.201Z,15.92
2022-09-20T13:27:11.922Z,15.60
2022-09-20T13:29:44.741Z,15.30
2022-09-20T13:32:30.694Z,15.24
2022-09-20T13:35:10.227Z,15.30
2022-09-20T13:37:53.058Z,15.30
2022-09-20T13:40:38.390Z,15.44
2022-09-20T13:43:30.029Z,15.60
2022-09-20T13:46:31.141Z,15.60
2022-09-20T13:49:32.255Z,15.50
2022-09-20T13:51:59.571Z,15.50
2022-09-20T13:54:32.404Z,15.50
2022-09-20T13:57:06.680Z,15.50
2022-09-20T13:59:40.769Z,15.60
2022-09-20T14:02:26.534Z,15.60
2022-09-20T14:04:56.727Z,15.60
2022-09-20T14:07:25.935Z,15.60
2022-09-20T14:09:52.901Z,15.70
2022-09-20T14:12:21.737Z,15.80
2022-09-20T14:14:50.917Z,15.86
2022-09-20T14:17:21.641Z,16.00
2022-09-20T14:19:53.700Z,16.20
2022-09-20T14:22:29.789Z,16.30
2022-09-20T14:25:25.486Z,16.20
2022-09-20T14:28:20.114Z,16.20
2022-09-20T14:30:48.830Z,16.30
2022-09-20T14:33:20.867Z,16.50
2022-09-20T14:35:50.696Z,16.60
2022-09-20T14:38:24.691Z,16.70
2022-09-20T14:40:51.877Z,16.60
2022-09-20T14:43:32.983Z,16.60
2022-09-20T14:46:04.808Z,16.60
2022-09-20T14:48:40.608Z,16.60
2022-09-20T14:51:27.478Z,16.50
2022-09-20T14:54:13.829Z,16.30
2022-09-20T14:56:49.170Z,16.20
2022-09-20T14:59:18.628Z,16.10
2022-09-20T15:02:12.608Z,16.10
2022-09-20T15:04:41.287Z,16.00
2022-09-20T15:07:11.502Z,16.02
2022-09-20T15:09:38.040Z,16.00
2022-09-20T15:12:14.130Z,15.94
2022-09-20T15:14:41.437Z,15.80
2022-09-20T15:17:16.443Z,15.80
2022-09-20T15:19:42.991Z,15.60
2022-09-20T15:22:11.593Z,15.50
2022-09-20T15:24:38.933Z,15.40
2022-09-20T15:27:06.556Z,15.26
2022-09-20T15:29:33.505Z,15.04
2022-09-20T15:32:00.009Z,14.80
2022-09-20T15:34:26.731Z,14.70
2022-09-20T15:36:54.659Z,14.50
2022-09-20T15:39:22.393Z,14.40
2022-09-20T15:41:53.033Z,13.86
2022-09-20T15:44:20.795Z,13.08
2022-09-20T15:46:48.916Z,12.60
2022-09-20T15:49:15.364Z,12.36
2022-09-20T15:51:41.848Z,12.20
2022-09-20T15:54:15.131Z,11.94
2022-09-20T15:56:42.460Z,11.76
2022-09-20T15:59:11.798Z,11.80
2022-09-20T16:01:42.166Z,11.80
2022-09-20T16:04:12.355Z,11.70
2022-09-20T16:06:42.100Z,11.70
2022-09-20T16:09:10.087Z,11.80
2022-09-20T16:11:39.979Z,11.80
2022-09-20T16:14:07.029Z,11.80
2022-09-20T16:16:40.064Z,11.80
2022-09-20T16:19:18.171Z,11.80
2022-09-20T16:21:52.487Z,11.80
2022-09-20T16:24:35.059Z,11.70
2022-09-20T16:27:06.192Z,11.70
2022-09-20T16:29:33.299Z,11.70
2022-09-20T16:32:01.663Z,11.72
2022-09-20T16:34:31.220Z,11.80
2022-09-20T16:37:11.898Z,11.90
2022-09-20T16:39:38.916Z,11.90
2022-09-20T16:42:07.480Z,11.90
2022-09-20T16:44:40.671Z,11.90
2022-09-20T16:47:12.000Z,11.80
2022-09-20T16:49:39.600Z,11.80
2022-09-20T16:52:09.256Z,11.80
2022-09-20T16:54:36.037Z,11.70
2022-09-20T16:57:03.467Z,11.70
2022-09-20T16:59:30.197Z,11.60
2022-09-20T17:01:56.965Z,11.60
2022-09-20T17:04:23.505Z,11.54
2022-09-20T17:06:51.615Z,11.50
2022-09-20T17:09:18.172Z,11.42
2022-09-20T17:11:50.333Z,11.40
2022-09-20T17:14:20.319Z,11.30
2022-09-20T17:16:49.157Z,11.20
2022-09-20T17:19:19.313Z,11.20
2022-09-20T17:21:51.737Z,11.16
2022-09-20T17:24:23.173Z,11.10
2022-09-20T17:26:51.082Z,11.08
2022-09-20T17:29:20.273Z,11.00
2022-09-20T17:31:55.298Z,11.00
2022-09-20T17:34:25.033Z,10.98
2022-09-20T17:36:54.251Z,11.00
2022-09-20T17:39:20.771Z,11.00
2022-09-20T17:41:49.686Z,11.00
2022-09-20T17:44:16.968Z,11.00
2022-09-20T17:46:47.884Z,11.00
2022-09-20T17:49:18.116Z,11.10
2022-09-20T17:51:51.238Z,11.10
2022-09-20T17:54:19.208Z,10.90
2022-09-20T17:56:48.860Z,10.90
2022-09-20T17:59:17.279Z,10.90
2022-09-20T18:01:47.005Z,10.90
2022-09-20T18:04:14.321Z,10.90
2022-09-20T18:06:46.669Z,10.90
2022-09-20T18:09:20.533Z,10.80
2022-09-20T18:11:50.633Z,10.80
2022-09-20T18:14:22.621Z,10.70
2022-09-20T18:16:57.777Z,10.70
2022-09-20T18:19:24.534Z,10.70
2022-09-20T18:21:51.606Z,10.60
2022-09-20T18:24:18.147Z,10.60
2022-09-20T18:26:44.688Z,10.60
2022-09-20T18:29:18.038Z,10.60
2022-09-20T18:31:49.786Z,10.56
2022-09-20T18:34:20.166Z,10.50
2022-09-20T18:36:57.073Z,10.40
2022-09-20T18:39:38.372Z,10.36
2022-09-20T18:42:09.118Z,10.40
2022-09-20T18:44:36.250Z,10.40
2022-09-20T18:47:04.914Z,10.40
2022-09-20T18:49:32.176Z,10.40
2022-09-20T18:51:58.763Z,10.40
2022-09-20T18:54:25.497Z,10.40
2022-09-20T18:56:52.390Z,10.40
2022-09-20T18:59:22.654Z,10.40
2022-09-20T19:01:55.654Z,10.40
2022-09-20T19:04:53.762Z,10.30
2022-09-20T19:08:12.996Z,10.30
2022-09-20T19:10:53.453Z,10.20
2022-09-20T19:13:58.088Z,10.22
2022-09-20T19:16:36.992Z,10.28
2022-09-20T19:19:50.124Z,10.18
2022-09-20T19:23:03.018Z,10.10
2022-09-20T19:25:43.595Z,10.10
2022-09-20T19:28:13.766Z,10.10
2022-09-20T19:30:42.719Z,10.10
2022-09-20T19:33:18.536Z,10.10
2022-09-20T19:35:50.232Z,10.10
2022-09-20T19:38:35.444Z,10.10
2022-09-20T19:41:26.542Z,10.06
2022-09-20T19:44:27.076Z,10.10
2022-09-20T19:47:26.385Z,10.10
2022-09-20T19:50:27.848Z,10.10
2022-09-20T19:52:58.609Z,10.10
2022-09-20T19:55:25.629Z,10.10
2022-09-20T19:57:53.013Z,10.00
2022-09-20T20:00:21.748Z,10.00
2022-09-20T20:02:48.948Z,10.00
2022-09-20T20:05:19.979Z,10.00
2022-09-20T20:08:24.056Z,10.00
2022-09-20T20:11:28.911Z,10.10
2022-09-20T20:14:23.816Z,10.10
2022-09-20T20:17:11.173Z,10.10
2022-09-20T20:19:54.640Z,10.10
2022-09-20T20:22:36.964Z,10.10
2022-09-20T20:25:04.466Z,10.12
2022-09-20T20:27:32.575Z,10.10
2022-09-20T20:29:59.075Z,10.10
2022-09-20T20:32:25.774Z,10.10
2022-09-20T20:34:52.260Z,10.10
2022-09-20T20:37:18.714Z,10.10
2022-09-20T20:39:45.241Z,10.10
2022-09-20T20:42:12.793Z,10.10
2022-09-20T20:44:40.089Z,10.10
2022-09-20T20:47:07.283Z,10.10
2022-09-20T20:49:35.931Z,10.04
2022-09-20T20:52:05.159Z,10.00
2022-09-20T20:54:32.478Z,10.00
2022-09-20T20:56:59.450Z,10.04
2022-09-20T20:59:26.331Z,10.02
2022-09-20T21:01:52.833Z,10.00
2022-09-20T21:04:19.992Z,10.00
2022-09-20T21:06:46.654Z,10.00
2022-09-20T21:09:13.564Z,9.90
2022-09-20T21:11:44.355Z,9.90
2022-09-20T21:14:12.876Z,9.90
2022-09-20T21:16:43.123Z,9.80
2022-09-20T21:19:15.189Z,9.80
2022-09-20T21:21:44.441Z,9.70
2022-09-20T21:24:15.312Z,9.70
2022-09-20T21:26:42.047Z,9.60
2022-09-20T21:29:15.632Z,9.60
2022-09-20T21:31:45.248Z,9.50
2022-09-20T21:34:14.004Z,9.50
2022-09-20T21:36:42.007Z,9.42
2022-09-20T21:39:08.895Z,9.36
2022-09-20T21:41:38.450Z,9.30
2022-09-20T21:44:07.330Z,9.30
2022-09-20T21:46:38.196Z,9.30
2022-09-20T21:49:08.583Z,9.30
2022-09-20T21:51:37.219Z,9.30
2022-09-20T21:54:04.492Z,9.30
2022-09-20T21:56:36.940Z,9.30
2022-09-20T21:59:06.140Z,9.30
2022-09-20T22:01:36.350Z,9.30
2022-09-20T22:04:09.941Z,9.24
2022-09-20T22:06:42.639Z,9.20
2022-09-20T22:09:13.398Z,9.20
2022-09-20T22:11:44.625Z,9.20
2022-09-20T22:14:13.804Z,9.20
2022-09-20T22:16:44.193Z,9.20
2022-09-20T22:19:13.697Z,9.18
2022-09-20T22:21:43.719Z,9.10
2022-09-20T22:24:12.259Z,9.10
2022-09-20T22:26:50.704Z,9.10
2022-09-20T22:29:18.208Z,9.10
2022-09-20T22:31:47.429Z,9.10
2022-09-20T22:34:18.099Z,9.10
2022-09-20T22:36:44.778Z,9.10
2022-09-20T22:39:12.988Z,9.18
2022-09-20T22:41:41.316Z,9.10
2022-09-20T22:44:08.080Z,9.10
2022-09-20T22:46:35.639Z,9.10
2022-09-20T22:49:05.856Z,9.20
2022-09-20T22:51:33.376Z,9.20
2022-09-20T22:54:05.143Z,9.20
2022-09-20T22:56:32.105Z,9.20
2022-09-20T22:59:04.768Z,9.20
2022-09-20T23:01:35.385Z,9.20
2022-09-20T23:04:08.832Z,9.20
2022-09-20T23:06:41.511Z,9.14
2022-09-20T23:09:12.240Z,9.10
2022-09-20T23:11:42.564Z,9.10
2022-09-20T23:14:12.746Z,9.10
2022-09-20T23:16:39.749Z,9.10
2022-09-20T23:19:07.949Z,9.10
2022-09-20T23:21:37.363Z,9.00
2022-09-20T23:24:07.257Z,9.00
2022-09-20T23:26:37.951Z,9.00
2022-09-20T23:29:10.951Z,9.00
2022-09-20T23:31:39.996Z,9.00
2022-09-20T23:34:08.192Z,8.94
2022-09-20T23:36:38.768Z,8.90
2022-09-20T23:39:07.719Z,8.90
2022-09-20T23:41:34.552Z,8.90
2022-09-20T23:44:01.270Z,8.90
2022-09-20T23:46:27.852Z,8.82
2022-09-20T23:48:54.678Z,8.80
2022-09-20T23:51:26.404Z,8.80
2022-09-20T23:53:53.573Z,8.80
2022-09-20T23:56:21.997Z,8.80
2022-09-20T23:58:49.065Z,8.80
